Fort Wayne, Indiana
Current Conditions -  °F | °C
As of 4:54 AM on Sunday 26 Oct 2014 (Local Time) from KFWA Reporting Station
Clear Clear  
Wind Chill: 41°   Ceiling: Unl
Heat Index: 46°   Visibility: 10mi
Dew Point: 34°   Wind: 10mph
Humidity: 63%   Direction: 290°WNW
Pressure: 29.96"   Gusts: NA
Location:  41.08°N, 85.1°W
Report Text: KFWA 260854Z 29009KT 10SM CLR 08/01 A2996 RMK AO2 SLP143 T00780011 51006
Loading
Personal Weather Stations






























Interactive Weather Map
Tropical Storm Tracking
New forecast layout! Learn more

10-Day Weather Forecast

Advertisements
Track Severe Weather on mobile